createdAt,value
2018-11-13T00:00:25.841Z,4.19
2018-11-13T00:02:55.774Z,4.17
2018-11-13T00:05:25.482Z,4.17
2018-11-13T00:07:54.665Z,4.14
2018-11-13T00:10:23.958Z,4.12
2018-11-13T00:12:53.175Z,4.20
2018-11-13T00:15:22.697Z,4.18
2018-11-13T00:17:51.907Z,4.13
2018-11-13T00:20:21.170Z,4.10
2018-11-13T00:22:50.685Z,4.05
2018-11-13T00:25:20.503Z,4.03
2018-11-13T00:27:49.690Z,4.03
2018-11-13T00:30:20.730Z,4.03
2018-11-13T00:32:50.335Z,4.00
2018-11-13T00:35:20.419Z,4.03
2018-11-13T00:37:50.035Z,4.06
2018-11-13T00:40:19.406Z,4.11
2018-11-13T00:42:49.120Z,4.10
2018-11-13T00:45:18.716Z,4.14
2018-11-13T00:47:47.723Z,4.22
2018-11-13T00:50:20.197Z,4.19
2018-11-13T00:52:49.606Z,4.21
2018-11-13T00:55:19.141Z,4.21
2018-11-13T00:57:49.036Z,4.18
2018-11-13T01:00:19.756Z,4.24
2018-11-13T01:02:49.301Z,4.17
2018-11-13T01:05:19.894Z,4.09
2018-11-13T01:07:50.186Z,4.14
2018-11-13T01:10:20.087Z,4.04
2018-11-13T01:12:49.660Z,3.93
2018-11-13T01:15:20.266Z,3.92
2018-11-13T01:17:49.786Z,3.82
2018-11-13T01:20:19.609Z,3.75
2018-11-13T01:22:49.050Z,3.69
2018-11-13T01:25:18.430Z,3.66
2018-11-13T01:27:47.777Z,3.71
2018-11-13T01:30:17.627Z,3.69
2018-11-13T01:32:47.065Z,3.73
2018-11-13T01:35:17.433Z,3.70
2018-11-13T01:37:47.016Z,3.68
2018-11-13T01:40:17.966Z,3.63
2018-11-13T01:42:47.187Z,3.64
2018-11-13T01:45:17.335Z,3.68
2018-11-13T01:47:46.553Z,3.62
2018-11-13T01:50:16.069Z,3.70
2018-11-13T01:52:45.658Z,3.68
2018-11-13T01:55:15.785Z,3.74
2018-11-13T01:57:45.046Z,3.81
2018-11-13T02:00:23.836Z,3.67
2018-11-13T02:02:54.346Z,3.63
2018-11-13T02:05:25.011Z,3.61
2018-11-13T02:07:54.765Z,3.51
2018-11-13T02:10:23.986Z,3.50
2018-11-13T02:12:53.473Z,3.48
2018-11-13T02:15:22.981Z,3.46
2018-11-13T02:17:52.315Z,3.45
2018-11-13T02:20:22.610Z,3.45
2018-11-13T02:22:51.971Z,3.48
2018-11-13T02:25:21.690Z,3.48
2018-11-13T02:27:50.973Z,3.41
2018-11-13T02:30:23.300Z,3.36
2018-11-13T02:32:52.655Z,3.26
2018-11-13T02:35:21.992Z,3.23
2018-11-13T02:37:51.333Z,3.17
2018-11-13T02:40:20.729Z,3.17
2018-11-13T02:42:50.037Z,3.25
2018-11-13T02:45:20.135Z,3.25
2018-11-13T02:47:49.845Z,3.21
2018-11-13T02:50:20.212Z,3.11
2018-11-13T02:52:49.388Z,3.16
2018-11-13T02:55:19.020Z,3.16
2018-11-13T02:57:48.111Z,3.12
2018-11-13T03:00:21.597Z,3.12
2018-11-13T03:02:51.274Z,3.07
2018-11-13T03:05:21.452Z,3.02
2018-11-13T03:07:50.672Z,3.02
2018-11-13T03:10:20.525Z,3.04
2018-11-13T03:12:50.062Z,3.06
2018-11-13T03:15:20.406Z,3.09
2018-11-13T03:17:49.778Z,3.14
2018-11-13T03:20:20.006Z,3.16
2018-11-13T03:22:49.803Z,2.99
2018-11-13T03:25:20.362Z,2.91
2018-11-13T03:27:49.602Z,2.83
2018-11-13T03:30:26.344Z,2.74
2018-11-13T03:32:55.843Z,2.77
2018-11-13T03:35:25.170Z,2.71
2018-11-13T03:37:54.437Z,2.75
2018-11-13T03:40:23.528Z,2.76
2018-11-13T03:42:53.141Z,2.70
2018-11-13T03:45:22.455Z,2.68
2018-11-13T03:47:51.714Z,2.70
2018-11-13T03:50:22.052Z,2.67
2018-11-13T03:52:51.378Z,2.60
2018-11-13T03:55:21.170Z,2.60
2018-11-13T03:57:50.990Z,2.63
2018-11-13T04:00:22.713Z,2.60
2018-11-13T04:02:51.953Z,2.61
2018-11-13T04:05:21.855Z,2.66
2018-11-13T04:07:54.022Z,2.65
2018-11-13T04:10:23.891Z,2.65
2018-11-13T04:12:53.297Z,2.68
2018-11-13T04:15:23.607Z,2.71
2018-11-13T04:17:52.983Z,2.70
2018-11-13T04:20:23.025Z,2.76
2018-11-13T04:22:52.356Z,2.81
2018-11-13T04:25:21.815Z,2.83
2018-11-13T04:27:51.224Z,2.77
2018-11-13T04:30:20.635Z,2.74
2018-11-13T04:32:49.933Z,2.66
2018-11-13T04:35:19.514Z,2.62
2018-11-13T04:37:48.627Z,2.61
2018-11-13T04:40:20.953Z,2.68
2018-11-13T04:42:52.436Z,2.64
2018-11-13T04:45:23.694Z,2.63
2018-11-13T04:47:53.397Z,2.61
2018-11-13T04:50:23.358Z,2.64
2018-11-13T04:52:52.407Z,2.63
2018-11-13T04:55:21.602Z,2.61
2018-11-13T04:57:51.218Z,2.61
2018-11-13T05:00:21.958Z,2.66
2018-11-13T05:02:51.340Z,2.76
2018-11-13T05:05:21.542Z,2.76
2018-11-13T05:07:51.992Z,2.77
2018-11-13T05:10:21.096Z,2.81
2018-11-13T05:12:50.744Z,2.77
2018-11-13T05:15:20.139Z,2.72
2018-11-13T05:17:49.374Z,2.74
2018-11-13T05:20:18.897Z,2.77
2018-11-13T05:22:47.927Z,2.75
2018-11-13T05:25:18.855Z,2.71
2018-11-13T05:27:48.079Z,2.75
2018-11-13T05:30:20.865Z,2.83
2018-11-13T05:32:50.141Z,2.95
2018-11-13T05:35:20.421Z,3.11
2018-11-13T05:37:49.794Z,3.31
2018-11-13T05:40:23.057Z,3.54
2018-11-13T05:42:52.504Z,3.78
2018-11-13T05:45:23.943Z,4.10
2018-11-13T05:47:53.552Z,4.45
2018-11-13T05:50:22.822Z,4.71
2018-11-13T05:52:53.463Z,5.07
2018-11-13T05:55:22.791Z,5.31
2018-11-13T05:57:52.186Z,5.53
2018-11-13T06:00:26.266Z,5.72
2018-11-13T06:02:55.630Z,5.98
2018-11-13T06:05:24.842Z,6.28
2018-11-13T06:07:54.182Z,6.54
2018-11-13T06:10:23.394Z,6.83
2018-11-13T06:12:52.887Z,7.09
2018-11-13T06:15:22.115Z,7.38
2018-11-13T06:17:51.528Z,7.74
2018-11-13T06:20:20.741Z,8.00
2018-11-13T06:22:50.321Z,8.12
2018-11-13T06:25:19.642Z,8.39
2018-11-13T06:27:49.695Z,8.52
2018-11-13T06:30:21.429Z,8.61
2018-11-13T06:32:50.886Z,8.65
2018-11-13T06:35:20.292Z,8.74
2018-11-13T06:37:49.490Z,8.89
2018-11-13T06:40:18.715Z,8.85
2018-11-13T06:42:48.116Z,8.52
2018-11-13T06:45:18.886Z,8.91
2018-11-13T06:47:48.593Z,9.07
2018-11-13T06:50:17.973Z,9.09
2018-11-13T06:52:48.043Z,9.04
2018-11-13T06:55:23.679Z,9.11
2018-11-13T06:57:52.950Z,9.32
2018-11-13T07:00:22.445Z,9.36
2018-11-13T07:02:51.848Z,9.46
2018-11-13T07:05:21.047Z,9.63
2018-11-13T07:07:50.416Z,9.70
2018-11-13T07:10:20.831Z,9.82
2018-11-13T07:12:50.843Z,9.88
2018-11-13T07:15:21.408Z,9.93
2018-11-13T07:17:52.064Z,10.06
2018-11-13T07:20:22.496Z,10.12
2018-11-13T07:22:51.862Z,10.06
2018-11-13T07:25:21.305Z,10.23
2018-11-13T07:27:50.614Z,10.30
2018-11-13T07:30:20.958Z,10.27
2018-11-13T07:32:50.134Z,10.20
2018-11-13T07:35:20.191Z,10.13
2018-11-13T07:37:53.853Z,9.96
2018-11-13T07:40:23.259Z,9.89
2018-11-13T07:42:52.960Z,9.53
2018-11-13T07:45:22.144Z,9.43
2018-11-13T07:47:51.891Z,9.26
2018-11-13T07:50:21.071Z,8.82
2018-11-13T07:52:50.381Z,9.05
2018-11-13T07:55:20.003Z,8.93
2018-11-13T07:57:49.363Z,9.20
2018-11-13T08:00:23.886Z,9.15
2018-11-13T08:02:54.242Z,9.09
2018-11-13T08:05:23.568Z,9.05
2018-11-13T08:07:52.793Z,8.98
2018-11-13T08:10:21.952Z,8.89
2018-11-13T08:12:51.508Z,9.04
2018-11-13T08:15:20.687Z,9.09
2018-11-13T08:17:49.960Z,9.20
2018-11-13T08:20:19.306Z,8.76
2018-11-13T08:22:55.153Z,8.56
2018-11-13T08:25:24.793Z,9.21
2018-11-13T08:27:53.951Z,9.56
2018-11-13T08:30:23.192Z,9.59
2018-11-13T08:32:52.349Z,9.82
2018-11-13T08:35:21.589Z,9.71
2018-11-13T08:37:51.062Z,9.66
2018-11-13T08:40:20.386Z,9.47
2018-11-13T08:42:49.518Z,9.17
2018-11-13T08:45:18.695Z,9.11
2018-11-13T08:47:48.073Z,9.08
2018-11-13T08:50:17.785Z,9.53
2018-11-13T08:52:47.586Z,9.41
2018-11-13T08:55:17.047Z,9.43
2018-11-13T08:57:46.316Z,9.13
2018-11-13T09:00:17.002Z,9.33
2018-11-13T09:02:46.768Z,9.33
2018-11-13T09:05:16.430Z,9.36
2018-11-13T09:07:45.932Z,9.54
2018-11-13T09:10:16.650Z,9.83
2018-11-13T09:12:46.105Z,9.92
2018-11-13T09:15:16.815Z,9.75
2018-11-13T09:17:46.106Z,9.80
2018-11-13T09:20:16.542Z,10.11
2018-11-13T09:22:45.853Z,10.19
2018-11-13T09:25:17.215Z,10.26
2018-11-13T09:27:46.741Z,10.37
2018-11-13T09:30:17.393Z,10.22
2018-11-13T09:32:46.964Z,10.34
2018-11-13T09:35:16.979Z,10.41
2018-11-13T09:37:46.056Z,10.11
2018-11-13T09:40:17.760Z,10.05
2018-11-13T09:42:47.942Z,10.16
2018-11-13T09:45:17.655Z,10.19
2018-11-13T09:47:47.023Z,10.11
2018-11-13T09:50:17.506Z,10.04
2018-11-13T09:52:48.214Z,10.41
2018-11-13T09:55:18.499Z,10.33
2018-11-13T09:57:48.068Z,10.50
2018-11-13T10:00:19.404Z,10.38
2018-11-13T10:02:51.111Z,10.41
2018-11-13T10:05:21.153Z,10.48
2018-11-13T10:07:50.913Z,10.38
2018-11-13T10:10:20.298Z,10.50
2018-11-13T10:12:49.677Z,10.44
2018-11-13T10:15:21.355Z,10.73
2018-11-13T10:17:51.291Z,10.84
2018-11-13T10:20:20.523Z,10.84
2018-11-13T10:22:51.269Z,10.73
2018-11-13T10:25:20.475Z,10.74
2018-11-13T10:27:49.738Z,10.70
2018-11-13T10:30:20.475Z,10.72
2018-11-13T10:32:50.164Z,10.81
2018-11-13T10:35:20.773Z,10.92
2018-11-13T10:37:50.070Z,10.91
2018-11-13T10:40:20.506Z,10.98
2018-11-13T10:42:50.174Z,11.02
2018-11-13T10:45:28.142Z,10.99
2018-11-13T10:47:57.629Z,11.04
2018-11-13T10:50:27.468Z,10.95
2018-11-13T10:52:56.910Z,11.02
2018-11-13T10:55:26.110Z,11.10
2018-11-13T10:57:55.237Z,11.22
2018-11-13T11:00:28.546Z,11.17
2018-11-13T11:03:02.993Z,11.09
2018-11-13T11:05:32.518Z,11.15
2018-11-13T11:08:01.626Z,11.07
2018-11-13T11:10:30.749Z,11.11
2018-11-13T11:13:00.190Z,11.20
2018-11-13T11:15:29.562Z,11.29
2018-11-13T11:17:59.005Z,11.33
2018-11-13T11:20:28.519Z,11.46
2018-11-13T11:22:58.614Z,11.35
2018-11-13T11:25:27.954Z,11.50
2018-11-13T11:27:57.220Z,11.50
2018-11-13T11:30:26.694Z,11.18
2018-11-13T11:32:56.019Z,11.29
2018-11-13T11:35:25.278Z,11.39
2018-11-13T11:37:54.594Z,11.44
2018-11-13T11:40:23.819Z,11.47
2018-11-13T11:42:53.661Z,11.55
2018-11-13T11:45:22.944Z,11.53
2018-11-13T11:47:52.119Z,11.46
2018-11-13T11:50:21.481Z,11.52
2018-11-13T11:52:50.844Z,11.44
2018-11-13T11:55:20.584Z,11.44
2018-11-13T11:57:49.707Z,11.60
2018-11-13T12:00:20.595Z,11.76
2018-11-13T12:02:49.988Z,11.65
2018-11-13T12:05:19.259Z,11.73
2018-11-13T12:07:48.850Z,11.70
2018-11-13T12:10:18.195Z,11.69
2018-11-13T12:12:47.461Z,11.79
2018-11-13T12:15:16.685Z,11.91
2018-11-13T12:17:46.235Z,11.81
2018-11-13T12:20:16.553Z,11.59
2018-11-13T12:22:46.001Z,11.54
2018-11-13T12:25:20.162Z,11.59
2018-11-13T12:27:47.957Z,11.65
2018-11-13T12:30:20.094Z,11.63
2018-11-13T12:32:50.019Z,11.59
2018-11-13T12:35:20.198Z,11.58
2018-11-13T12:37:49.583Z,11.75
2018-11-13T12:40:20.990Z,11.76
2018-11-13T12:42:50.921Z,11.77
2018-11-13T12:45:20.699Z,11.70
2018-11-13T12:47:50.066Z,11.72
2018-11-13T12:50:20.265Z,11.79
2018-11-13T12:52:49.698Z,11.77
2018-11-13T12:55:21.269Z,11.80
2018-11-13T12:57:50.661Z,11.72
2018-11-13T13:00:22.161Z,11.71
2018-11-13T13:02:51.395Z,11.68
2018-11-13T13:05:20.910Z,11.75
2018-11-13T13:07:50.282Z,11.71
2018-11-13T13:10:20.414Z,11.73
2018-11-13T13:12:49.785Z,11.81
2018-11-13T13:15:20.041Z,11.78
2018-11-13T13:17:49.277Z,11.78
2018-11-13T13:20:21.012Z,11.75
2018-11-13T13:22:50.690Z,11.73
2018-11-13T13:25:20.924Z,11.81
2018-11-13T13:27:50.308Z,11.68
2018-11-13T13:30:20.755Z,11.65
2018-11-13T13:32:50.338Z,11.73
2018-11-13T13:36:06.260Z,11.73
2018-11-13T13:38:36.840Z,11.69
2018-11-13T13:41:06.471Z,11.62
2018-11-13T13:43:36.074Z,11.67
2018-11-13T13:46:05.480Z,11.66
2018-11-13T13:48:34.838Z,11.68
2018-11-13T13:51:04.162Z,11.69
2018-11-13T13:53:33.445Z,11.67
2018-11-13T13:56:02.955Z,11.68
2018-11-13T13:58:32.258Z,11.71
2018-11-13T14:01:01.642Z,11.79
2018-11-13T14:03:30.793Z,11.80
2018-11-13T14:06:00.280Z,11.80
2018-11-13T14:08:29.761Z,11.81
2018-11-13T14:10:59.082Z,11.78
2018-11-13T14:13:28.412Z,11.76
2018-11-13T14:15:57.702Z,11.80
2018-11-13T14:18:26.882Z,11.77
2018-11-13T14:20:56.712Z,11.73
2018-11-13T14:23:25.877Z,11.77
2018-11-13T14:25:55.123Z,11.75
2018-11-13T14:28:24.450Z,11.71
2018-11-13T14:30:53.742Z,11.71
2018-11-13T14:33:23.346Z,11.66
2018-11-13T14:35:52.828Z,11.63
2018-11-13T14:38:22.130Z,11.63
2018-11-13T14:40:51.310Z,11.56
2018-11-13T14:43:20.510Z,11.54
2018-11-13T14:45:49.913Z,11.50
2018-11-13T14:48:19.095Z,11.42
2018-11-13T14:50:48.348Z,11.38
2018-11-13T14:53:17.642Z,11.39
2018-11-13T14:55:47.086Z,11.30
2018-11-13T14:58:17.504Z,11.22
2018-11-13T15:00:46.765Z,11.22
2018-11-13T15:03:17.015Z,11.19
2018-11-13T15:05:46.422Z,11.19
2018-11-13T15:08:15.813Z,11.10
2018-11-13T15:10:52.814Z,11.11
2018-11-13T15:13:23.298Z,11.08
2018-11-13T15:15:52.424Z,11.04
2018-11-13T15:18:21.517Z,11.07
2018-11-13T15:20:51.811Z,10.97
2018-11-13T15:23:21.303Z,10.90
2018-11-13T15:25:50.434Z,10.84
2018-11-13T15:28:19.758Z,10.75
2018-11-13T15:30:50.355Z,10.71
2018-11-13T15:33:21.737Z,10.59
2018-11-13T15:35:51.403Z,10.53
2018-11-13T15:38:20.606Z,10.52
2018-11-13T15:40:49.838Z,10.41
2018-11-13T15:43:19.158Z,10.42
2018-11-13T15:45:48.218Z,10.51
2018-11-13T15:48:17.515Z,10.59
2018-11-13T15:50:46.847Z,10.56
2018-11-13T15:53:16.275Z,10.52
2018-11-13T15:55:45.557Z,10.47
2018-11-13T15:58:14.886Z,10.44
2018-11-13T16:00:44.289Z,10.40
2018-11-13T16:03:19.966Z,10.36
2018-11-13T16:05:50.423Z,10.34
2018-11-13T16:08:19.842Z,10.37
2018-11-13T16:10:49.309Z,10.26
2018-11-13T16:13:18.515Z,10.21
2018-11-13T16:15:47.758Z,10.15
2018-11-13T16:18:19.578Z,10.17
2018-11-13T16:20:48.748Z,10.18
2018-11-13T16:23:18.006Z,10.16
2018-11-13T16:25:47.287Z,10.12
2018-11-13T16:28:16.553Z,10.06
2018-11-13T16:30:45.955Z,10.04
2018-11-13T16:33:15.105Z,9.99
2018-11-13T16:35:44.530Z,9.93
2018-11-13T16:38:14.063Z,9.91
2018-11-13T16:40:43.201Z,9.88
2018-11-13T16:43:12.362Z,9.89
2018-11-13T16:45:41.643Z,9.79
2018-11-13T16:48:11.008Z,9.76
2018-11-13T16:50:41.534Z,9.75
2018-11-13T16:53:10.867Z,9.70
2018-11-13T16:55:47.736Z,9.64
2018-11-13T16:58:17.263Z,9.57
2018-11-13T17:00:46.859Z,9.55
2018-11-13T17:03:16.061Z,9.55
2018-11-13T17:05:45.273Z,9.52
2018-11-13T17:08:14.535Z,9.50
2018-11-13T17:10:44.409Z,9.41
2018-11-13T17:13:13.757Z,9.35
2018-11-13T17:15:43.221Z,9.27
2018-11-13T17:18:13.726Z,9.18
2018-11-13T17:20:41.678Z,9.13
2018-11-13T17:23:10.989Z,9.05
2018-11-13T17:25:40.510Z,8.94
2018-11-13T17:28:09.887Z,8.87
2018-11-13T17:30:39.286Z,8.79
2018-11-13T17:33:09.768Z,8.68
2018-11-13T17:35:38.983Z,8.60
2018-11-13T17:38:08.178Z,8.55
2018-11-13T17:40:38.027Z,8.47
2018-11-13T17:43:07.932Z,8.41
2018-11-13T17:45:38.550Z,8.31
2018-11-13T17:48:08.960Z,8.28
2018-11-13T17:50:42.729Z,8.24
2018-11-13T17:53:12.503Z,8.14
2018-11-13T17:55:42.131Z,8.13
2018-11-13T17:58:13.386Z,8.15
2018-11-13T18:00:46.062Z,8.05
2018-11-13T18:03:16.428Z,8.02
2018-11-13T18:05:46.663Z,7.96
2018-11-13T18:08:15.736Z,7.94
2018-11-13T18:10:46.184Z,7.89
2018-11-13T18:13:15.453Z,7.84
2018-11-13T18:15:45.049Z,7.86
2018-11-13T18:18:14.565Z,7.78
2018-11-13T18:20:43.945Z,7.76
2018-11-13T18:23:13.098Z,7.66
2018-11-13T18:25:42.612Z,7.65
2018-11-13T18:28:12.421Z,7.57
2018-11-13T18:30:41.658Z,7.55
2018-11-13T18:33:11.073Z,7.47
2018-11-13T18:35:40.913Z,7.45
2018-11-13T18:38:11.942Z,7.43
2018-11-13T18:40:41.487Z,7.41
2018-11-13T18:43:10.953Z,7.38
2018-11-13T18:45:41.446Z,7.32
2018-11-13T18:48:11.136Z,7.31
2018-11-13T18:50:42.883Z,7.27
2018-11-13T18:53:12.387Z,7.26
2018-11-13T18:55:41.944Z,7.21
2018-11-13T18:58:11.560Z,7.18
2018-11-13T19:00:41.515Z,7.21
2018-11-13T19:03:11.928Z,7.09
2018-11-13T19:05:41.579Z,7.09
2018-11-13T19:08:11.329Z,7.05
2018-11-13T19:10:42.309Z,7.06
2018-11-13T19:13:13.258Z,7.01
2018-11-13T19:15:43.960Z,7.01
2018-11-13T19:18:13.680Z,6.94
2018-11-13T19:20:42.979Z,6.95
2018-11-13T19:23:12.624Z,6.95
2018-11-13T19:25:42.305Z,6.92
2018-11-13T19:28:11.948Z,6.89
2018-11-13T19:30:41.258Z,6.87
2018-11-13T19:33:10.641Z,6.85
2018-11-13T19:35:40.347Z,6.79
2018-11-13T19:38:09.626Z,6.79
2018-11-13T19:40:38.920Z,6.76
2018-11-13T19:43:09.568Z,6.77
2018-11-13T19:45:38.764Z,6.76
2018-11-13T19:48:08.152Z,6.76
2018-11-13T19:50:37.957Z,6.77
2018-11-13T19:53:07.301Z,6.73
2018-11-13T19:55:37.347Z,6.77
2018-11-13T19:58:07.324Z,6.66
2018-11-13T20:00:38.493Z,6.69
2018-11-13T20:03:09.176Z,6.68
2018-11-13T20:05:38.357Z,6.70
2018-11-13T20:08:08.170Z,6.67
2018-11-13T20:10:38.050Z,6.72
2018-11-13T20:13:08.175Z,6.60
2018-11-13T20:15:37.883Z,6.52
2018-11-13T20:18:07.483Z,6.50
2018-11-13T20:20:37.021Z,6.52
2018-11-13T20:23:07.646Z,6.49
2018-11-13T20:25:37.191Z,6.50
2018-11-13T20:28:06.471Z,6.57
2018-11-13T20:30:36.923Z,6.63
2018-11-13T20:33:06.077Z,6.65
2018-11-13T20:35:35.431Z,6.62
2018-11-13T20:38:06.731Z,6.56
2018-11-13T20:40:37.050Z,6.51
2018-11-13T20:43:07.941Z,6.51
2018-11-13T20:45:37.273Z,6.45
2018-11-13T20:48:07.184Z,6.40
2018-11-13T20:50:36.422Z,6.38
2018-11-13T20:53:05.674Z,6.35
2018-11-13T20:55:34.930Z,6.35
2018-11-13T20:58:04.670Z,6.28
2018-11-13T21:00:34.967Z,6.29
2018-11-13T21:03:04.170Z,6.28
2018-11-13T21:05:33.400Z,6.32
2018-11-13T21:08:02.772Z,6.25
2018-11-13T21:10:39.163Z,6.26
2018-11-13T21:13:09.506Z,6.18
2018-11-13T21:15:39.078Z,6.12
2018-11-13T21:18:08.378Z,6.17
2018-11-13T21:20:37.776Z,6.15
2018-11-13T21:23:07.134Z,6.03
2018-11-13T21:25:36.789Z,5.91
2018-11-13T21:28:05.936Z,5.82
2018-11-13T21:30:35.264Z,5.72
2018-11-13T21:33:04.507Z,5.67
2018-11-13T21:35:33.710Z,5.57
2018-11-13T21:38:02.973Z,5.46
2018-11-13T21:40:32.410Z,5.36
2018-11-13T21:43:01.530Z,5.45
2018-11-13T21:45:30.351Z,5.28
2018-11-13T21:48:00.628Z,5.40
2018-11-13T21:50:30.458Z,5.10
2018-11-13T21:53:00.074Z,5.00
2018-11-13T21:55:29.943Z,5.02
2018-11-13T21:57:59.105Z,4.99
2018-11-13T22:00:31.818Z,5.02
2018-11-13T22:03:04.128Z,4.94
2018-11-13T22:05:34.098Z,4.62
2018-11-13T22:08:03.354Z,4.54
2018-11-13T22:10:32.593Z,4.67
2018-11-13T22:13:01.617Z,4.61
2018-11-13T22:15:31.250Z,4.67
2018-11-13T22:18:01.192Z,4.69
2018-11-13T22:20:30.438Z,4.59
2018-11-13T22:23:00.450Z,4.43
2018-11-13T22:25:29.782Z,4.34
2018-11-13T22:27:59.475Z,4.31
2018-11-13T22:30:29.896Z,4.29
2018-11-13T22:32:59.003Z,4.36
2018-11-13T22:35:28.315Z,4.29
2018-11-13T22:37:57.992Z,4.32
2018-11-13T22:40:28.273Z,4.29
2018-11-13T22:42:58.030Z,4.24
2018-11-13T22:45:28.327Z,4.20
2018-11-13T22:47:57.843Z,4.19
2018-11-13T22:50:29.243Z,4.18
2018-11-13T22:52:58.561Z,4.09
2018-11-13T22:55:27.817Z,4.03
2018-11-13T22:57:57.789Z,3.94
2018-11-13T23:00:40.476Z,3.98
2018-11-13T23:03:11.883Z,3.98
2018-11-13T23:05:41.198Z,3.90
2018-11-13T23:08:11.729Z,3.88
2018-11-13T23:10:41.069Z,3.81
2018-11-13T23:13:10.363Z,3.74
2018-11-13T23:15:39.756Z,3.70
2018-11-13T23:18:09.399Z,3.70
2018-11-13T23:20:38.771Z,3.74
2018-11-13T23:23:07.946Z,3.76
2018-11-13T23:25:37.167Z,3.75
2018-11-13T23:28:06.832Z,3.78
2018-11-13T23:30:36.210Z,3.80
2018-11-13T23:33:06.044Z,3.76
2018-11-13T23:35:34.979Z,3.72
2018-11-13T23:38:04.235Z,3.73
2018-11-13T23:40:33.363Z,3.69
2018-11-13T23:43:02.582Z,3.72
2018-11-13T23:45:31.670Z,3.70
2018-11-13T23:48:01.123Z,3.74
2018-11-13T23:50:30.194Z,3.73
2018-11-13T23:52:59.605Z,3.73
2018-11-13T23:55:28.977Z,3.81
2018-11-13T23:57:58.209Z,3.87
